16°C Temp
13°C Dewpoint
% Humidity
Temperature
3 KM/H
2 MPH
2 KTS
290°
West North
West

Wind Speed
Despejado
Pressure 1016.92 (hPa) - 30.03 (in)
Visibility 6.2 (mi) - 10.0 (km)

Current Conditions
LEVC
Location 70(km)
Metar :LEVC 300700Z 29002KT CAVOK 16/13 Q1017 NOSIG
Wed 30th September 09:00 am

Airport
  Metar Aviation API Data Provided by https://www.checkwx.com/ PHP scripts by weather34.com ©2020